createdAt,value
2022-12-01T00:01:10.038Z,78.72
2022-12-01T00:03:36.933Z,80.45
2022-12-01T00:06:12.300Z,78.72
2022-12-01T00:08:39.020Z,80.07
2022-12-01T00:11:11.645Z,79.85
2022-12-01T00:13:38.473Z,77.70
2022-12-01T00:16:17.015Z,78.07
2022-12-01T00:18:44.279Z,78.35
2022-12-01T00:21:22.372Z,80.05
2022-12-01T00:23:51.864Z,75.93
2022-12-01T00:26:21.183Z,75.93
2022-12-01T00:28:56.591Z,77.78
2022-12-01T00:31:24.237Z,77.10
2022-12-01T00:33:51.293Z,78.57
2022-12-01T00:36:18.315Z,75.15
2022-12-01T00:38:45.435Z,73.45
2022-12-01T00:41:12.279Z,75.70
2022-12-01T00:43:39.942Z,74.50
2022-12-01T00:46:06.793Z,77.53
2022-12-01T00:48:33.789Z,75.57
2022-12-01T00:51:00.591Z,74.47
2022-12-01T00:53:27.316Z,78.53
2022-12-01T00:55:54.302Z,76.25
2022-12-01T00:58:21.748Z,77.90
2022-12-01T01:00:48.691Z,76.18
2022-12-01T01:03:15.648Z,80.97
2022-12-01T01:05:43.320Z,75.18
2022-12-01T01:08:11.386Z,76.53
2022-12-01T01:10:39.617Z,71.38
2022-12-01T01:13:06.480Z,74.18
2022-12-01T01:15:33.587Z,82.28
2022-12-01T01:18:00.962Z,80.22
2022-12-01T01:20:27.960Z,78.03
2022-12-01T01:22:54.792Z,75.85
2022-12-01T01:25:21.775Z,78.25
2022-12-01T01:27:48.728Z,74.63
2022-12-01T01:30:15.712Z,71.53
2022-12-01T01:32:42.513Z,72.82
2022-12-01T01:35:09.613Z,75.57
2022-12-01T01:37:36.551Z,74.43
2022-12-01T01:40:03.503Z,80.25
2022-12-01T01:42:30.129Z,74.03
2022-12-01T01:44:58.077Z,76.97
2022-12-01T01:47:43.036Z,69.57
2022-12-01T01:50:14.971Z,70.03
2022-12-01T01:53:02.819Z,78.80
2022-12-01T01:55:34.239Z,74.10
2022-12-01T01:58:03.261Z,69.68
2022-12-01T02:00:29.923Z,74.22
2022-12-01T02:02:57.558Z,74.63
2022-12-01T02:05:27.211Z,69.50
2022-12-01T02:07:57.336Z,73.03
2022-12-01T02:10:58.807Z,69.60
2022-12-01T02:13:34.759Z,70.65
2022-12-01T02:16:51.109Z,74.22
2022-12-01T02:20:02.797Z,74.03
2022-12-01T02:23:03.461Z,69.97
2022-12-01T02:26:02.941Z,73.85
2022-12-01T02:28:59.325Z,73.53
2022-12-01T02:31:47.212Z,72.13
2022-12-01T02:34:21.895Z,72.78
2022-12-01T02:36:57.053Z,70.28
2022-12-01T02:39:38.869Z,73.25
2022-12-01T02:42:39.226Z,70.63
2022-12-01T02:45:10.753Z,67.95
2022-12-01T02:47:38.881Z,69.93
2022-12-01T02:50:07.500Z,72.63
2022-12-01T02:52:34.962Z,70.68
2022-12-01T02:55:01.969Z,71.18
2022-12-01T02:57:30.305Z,69.13
2022-12-01T02:59:57.377Z,66.45
2022-12-01T03:02:49.682Z,76.53
2022-12-01T03:05:26.569Z,72.05
2022-12-01T03:08:02.167Z,73.63
2022-12-01T03:10:55.629Z,67.53
2022-12-01T03:13:52.320Z,67.55
2022-12-01T03:16:36.817Z,67.68
2022-12-01T03:21:50.571Z,68.07
2022-12-01T03:24:20.420Z,69.35
2022-12-01T03:26:49.745Z,64.93
2022-12-01T03:29:18.710Z,68.30
2022-12-01T03:31:49.030Z,67.78
2022-12-01T03:34:24.343Z,67.25
2022-12-01T03:36:58.331Z,63.13
2022-12-01T03:39:29.659Z,64.75
2022-12-01T03:42:37.044Z,58.10
2022-12-01T03:45:08.514Z,61.28
2022-12-01T03:47:37.753Z,58.08
2022-12-01T03:50:05.956Z,62.85
2022-12-01T03:53:05.887Z,58.05
2022-12-01T03:55:38.197Z,59.25
2022-12-01T03:58:10.290Z,63.42
2022-12-01T04:00:37.489Z,57.65
2022-12-01T04:03:05.350Z,59.33
2022-12-01T04:05:33.790Z,56.65
2022-12-01T04:08:01.124Z,56.05
2022-12-01T04:10:28.555Z,61.40
2022-12-01T04:12:59.751Z,53.70
2022-12-01T04:15:27.612Z,57.20
2022-12-01T04:17:54.527Z,57.72
2022-12-01T04:20:21.478Z,58.38
2022-12-01T04:22:48.377Z,57.95
2022-12-01T04:25:15.348Z,63.92
2022-12-01T04:27:42.217Z,62.85
2022-12-01T04:30:09.797Z,63.78
2022-12-01T04:32:40.598Z,59.78
2022-12-01T04:35:09.489Z,65.70
2022-12-01T04:37:36.561Z,67.60
2022-12-01T04:40:03.935Z,67.63
2022-12-01T04:42:30.731Z,65.88
2022-12-01T04:44:57.649Z,67.20
2022-12-01T04:47:24.388Z,68.65
2022-12-01T04:49:51.388Z,65.28
2022-12-01T04:52:18.228Z,69.82
2022-12-01T04:54:44.922Z,71.03
2022-12-01T04:57:11.684Z,68.53
2022-12-01T04:59:38.367Z,67.70
2022-12-01T05:02:05.089Z,71.20
2022-12-01T05:04:34.094Z,71.25
2022-12-01T05:07:00.851Z,68.00
2022-12-01T05:09:27.704Z,68.38
2022-12-01T05:11:54.538Z,70.28
2022-12-01T05:14:21.292Z,70.70
2022-12-01T05:16:48.099Z,72.85
2022-12-01T05:19:33.593Z,71.95
2022-12-01T05:22:00.271Z,70.47
2022-12-01T05:24:27.340Z,68.03
2022-12-01T05:26:54.414Z,67.63
2022-12-01T05:29:21.346Z,68.82
2022-12-01T05:31:48.222Z,68.35
2022-12-01T05:34:15.066Z,72.57
2022-12-01T05:36:42.365Z,69.15
2022-12-01T05:39:09.085Z,68.68
2022-12-01T05:41:36.184Z,69.47
2022-12-01T05:44:02.869Z,70.03
2022-12-01T05:46:29.569Z,74.15
2022-12-01T05:48:56.199Z,73.47
2022-12-01T05:51:22.954Z,68.93
2022-12-01T05:53:49.856Z,74.32
2022-12-01T05:56:16.546Z,75.28
2022-12-01T05:58:43.266Z,69.43
2022-12-01T06:01:10.245Z,72.18
2022-12-01T06:03:36.948Z,72.03
2022-12-01T06:06:03.900Z,66.30
2022-12-01T06:08:30.677Z,74.90
2022-12-01T06:10:57.475Z,73.20
2022-12-01T06:13:24.103Z,74.53
2022-12-01T06:16:02.724Z,75.13
2022-12-01T06:18:37.583Z,76.18
2022-12-01T06:21:06.216Z,73.13
2022-12-01T06:23:33.125Z,73.43
2022-12-01T06:25:59.998Z,76.40
2022-12-01T06:28:26.966Z,79.00
2022-12-01T06:30:57.781Z,82.53
2022-12-01T06:33:28.167Z,82.00
2022-12-01T06:36:02.284Z,77.68
2022-12-01T06:40:59.714Z,80.38
2022-12-01T06:43:26.709Z,83.70
2022-12-01T06:45:59.455Z,80.93
2022-12-01T06:48:28.209Z,77.28
2022-12-01T06:50:58.449Z,75.82
2022-12-01T06:53:27.501Z,78.03
2022-12-01T06:55:55.305Z,78.03
2022-12-01T06:58:22.675Z,77.75
2022-12-01T07:00:52.207Z,80.28
2022-12-01T07:03:19.211Z,75.45
2022-12-01T07:05:55.315Z,77.97
2022-12-01T07:08:21.958Z,76.38
2022-12-01T07:11:00.222Z,79.93
2022-12-01T07:13:32.804Z,78.15
2022-12-01T07:16:01.453Z,74.15
2022-12-01T07:18:29.085Z,73.05
2022-12-01T07:21:03.283Z,78.65
2022-12-01T07:23:31.083Z,80.53
2022-12-01T07:26:11.254Z,79.32
2022-12-01T07:28:38.235Z,75.88
2022-12-01T07:31:13.039Z,72.38
2022-12-01T07:33:40.189Z,80.47
2022-12-01T07:36:08.283Z,74.43
2022-12-01T07:38:35.757Z,70.70
2022-12-01T07:41:07.206Z,72.57
2022-12-01T07:43:34.595Z,70.15
2022-12-01T07:46:05.710Z,68.18
2022-12-01T07:48:32.618Z,71.03
2022-12-01T07:50:59.455Z,68.22
2022-12-01T07:53:26.420Z,67.70
2022-12-01T07:55:53.157Z,71.72
2022-12-01T07:58:19.914Z,72.72
2022-12-01T08:00:46.775Z,69.47
2022-12-01T08:03:14.651Z,69.22
2022-12-01T08:05:41.478Z,72.82
2022-12-01T08:08:08.250Z,70.35
2022-12-01T08:10:35.852Z,72.40
2022-12-01T08:13:02.513Z,71.80
2022-12-01T08:15:29.554Z,72.03
2022-12-01T08:17:56.330Z,71.28
2022-12-01T08:20:24.193Z,75.25
2022-12-01T08:22:50.950Z,74.05
2022-12-01T08:25:17.812Z,73.32
2022-12-01T08:27:44.535Z,76.13
2022-12-01T08:30:12.041Z,75.60
2022-12-01T08:32:38.796Z,80.30
2022-12-01T08:35:06.113Z,77.07
2022-12-01T08:37:32.855Z,69.40
2022-12-01T08:39:59.582Z,79.18
2022-12-01T08:42:26.460Z,78.30
2022-12-01T08:44:53.226Z,80.53
2022-12-01T08:47:20.009Z,85.50
2022-12-01T08:49:46.954Z,87.88
2022-12-01T08:52:13.801Z,83.35
2022-12-01T08:54:40.521Z,83.07
2022-12-01T08:57:07.663Z,86.55
2022-12-01T08:59:34.350Z,83.93
2022-12-01T09:02:05.491Z,83.40
2022-12-01T09:04:33.719Z,88.15
2022-12-01T09:07:00.728Z,85.15
2022-12-01T09:09:28.865Z,88.22
2022-12-01T09:11:56.102Z,84.53
2022-12-01T09:14:23.589Z,85.00
2022-12-01T09:16:51.052Z,84.15
2022-12-01T09:19:24.055Z,85.72
2022-12-01T09:24:18.669Z,81.03
2022-12-01T09:26:45.395Z,85.07
2022-12-01T09:29:14.142Z,95.25
2022-12-01T09:31:41.117Z,84.13
2022-12-01T09:34:14.363Z,116.85
2022-12-01T09:36:41.127Z,83.27
2022-12-01T09:39:09.234Z,90.75
2022-12-01T09:41:39.070Z,90.28
2022-12-01T09:44:38.359Z,90.57
2022-12-01T09:47:19.444Z,88.68
2022-12-01T09:49:55.691Z,86.93
2022-12-01T09:52:24.673Z,81.15
2022-12-01T09:54:52.727Z,93.68
2022-12-01T09:57:38.657Z,85.13
2022-12-01T10:00:13.443Z,84.90
2022-12-01T10:02:44.051Z,85.15
2022-12-01T10:05:15.262Z,84.95
2022-12-01T10:07:55.763Z,84.28
2022-12-01T10:10:35.926Z,84.07
2022-12-01T10:13:02.902Z,84.93
2022-12-01T10:16:01.206Z,82.88
2022-12-01T10:18:44.728Z,85.30
2022-12-01T10:21:23.768Z,98.47
2022-12-01T10:24:16.408Z,85.88
2022-12-01T10:26:59.444Z,93.15
2022-12-01T10:29:48.329Z,84.93
2022-12-01T10:32:19.350Z,79.72
2022-12-01T10:34:48.064Z,78.30
2022-12-01T10:37:19.336Z,72.57
2022-12-01T10:39:49.473Z,73.97
2022-12-01T10:42:51.732Z,69.68
2022-12-01T10:45:23.332Z,70.50
2022-12-01T10:48:10.242Z,73.72
2022-12-01T10:50:37.609Z,70.13
2022-12-01T10:53:04.893Z,75.13
2022-12-01T10:55:43.492Z,75.20
2022-12-01T10:58:15.982Z,75.82
2022-12-01T11:00:59.727Z,79.32
2022-12-01T11:06:00.945Z,77.10
2022-12-01T11:08:43.976Z,76.20
2022-12-01T11:11:32.575Z,83.68
2022-12-01T11:14:02.924Z,82.05
2022-12-01T11:16:50.648Z,81.00
2022-12-01T11:19:32.851Z,85.50
2022-12-01T11:22:01.892Z,87.72
2022-12-01T11:24:43.532Z,87.00
2022-12-01T11:27:26.039Z,85.05
2022-12-01T11:29:56.231Z,86.95
2022-12-01T11:32:31.428Z,77.97
2022-12-01T11:35:05.071Z,85.38
2022-12-01T11:37:36.887Z,89.45
2022-12-01T11:40:30.897Z,78.78
2022-12-01T11:43:00.144Z,77.07
2022-12-01T11:45:30.406Z,86.20
2022-12-01T11:48:03.140Z,85.35
2022-12-01T11:50:33.600Z,91.25
2022-12-01T11:53:00.768Z,89.72
2022-12-01T11:55:30.076Z,93.88
2022-12-01T11:58:01.652Z,85.22
2022-12-01T12:00:43.844Z,81.70
2022-12-01T12:03:30.975Z,83.47
2022-12-01T12:06:39.868Z,79.97
2022-12-01T12:09:15.416Z,78.28
2022-12-01T12:11:54.311Z,84.00
2022-12-01T12:14:35.836Z,90.30
2022-12-01T12:17:12.893Z,87.70
2022-12-01T12:20:50.670Z,84.65
2022-12-01T12:23:59.937Z,84.43
2022-12-01T12:26:33.376Z,82.25
2022-12-01T12:33:22.430Z,74.97
2022-12-01T12:36:04.914Z,76.97
2022-12-01T12:38:45.620Z,84.07
2022-12-01T12:41:41.950Z,86.57
2022-12-01T12:44:51.723Z,79.85
2022-12-01T12:47:18.709Z,78.70
2022-12-01T12:50:04.909Z,86.40
2022-12-01T12:52:35.649Z,89.00
2022-12-01T12:55:25.430Z,81.88
2022-12-01T12:58:11.326Z,78.28
2022-12-01T13:00:54.906Z,84.10
2022-12-01T13:03:39.816Z,83.43
2022-12-01T13:06:07.715Z,87.15
2022-12-01T13:08:44.860Z,88.63
2022-12-01T13:11:19.779Z,75.70
2022-12-01T13:14:07.415Z,74.97
2022-12-01T13:16:37.885Z,72.07
2022-12-01T13:19:13.893Z,79.00
2022-12-01T13:21:43.632Z,71.88
2022-12-01T13:24:22.821Z,67.72
2022-12-01T13:26:56.595Z,72.25
2022-12-01T13:29:25.358Z,68.40
2022-12-01T13:31:54.675Z,76.32
2022-12-01T13:34:26.088Z,67.70
2022-12-01T13:36:54.338Z,64.63
2022-12-01T13:39:29.381Z,68.13
2022-12-01T13:42:02.589Z,64.82
2022-12-01T13:44:41.677Z,63.10
2022-12-01T13:47:31.992Z,66.53
2022-12-01T13:50:39.422Z,63.00
2022-12-01T13:53:27.663Z,69.10
2022-12-01T13:56:18.065Z,67.25
2022-12-01T13:58:52.764Z,69.38
2022-12-01T14:01:43.530Z,68.28
2022-12-01T14:04:27.017Z,66.22
2022-12-01T14:07:34.392Z,64.75
2022-12-01T14:10:23.898Z,61.95
2022-12-01T14:12:52.259Z,62.75
2022-12-01T14:15:43.129Z,69.35
2022-12-01T14:18:40.499Z,62.80
2022-12-01T14:21:11.066Z,70.88
2022-12-01T14:23:41.499Z,71.57
2022-12-01T14:26:22.742Z,65.35
2022-12-01T14:29:15.774Z,71.00
2022-12-01T14:31:45.325Z,74.18
2022-12-01T14:34:21.410Z,70.68
2022-12-01T14:37:20.656Z,69.28
2022-12-01T14:40:08.274Z,67.85
2022-12-01T14:43:02.561Z,77.72
2022-12-01T14:45:41.272Z,73.85
2022-12-01T14:48:18.007Z,68.20
2022-12-01T14:50:50.674Z,71.22
2022-12-01T14:53:24.760Z,72.57
2022-12-01T14:56:09.209Z,71.70
2022-12-01T15:01:12.648Z,60.67
2022-12-01T15:03:49.261Z,60.67
2022-12-01T15:06:17.856Z,66.53
2022-12-01T15:08:58.428Z,66.93
2022-12-01T15:11:31.926Z,69.03
2022-12-01T15:13:58.715Z,74.95
2022-12-01T15:16:29.236Z,76.65
2022-12-01T15:18:57.357Z,78.47
2022-12-01T15:21:29.795Z,79.28
2022-12-01T15:24:21.455Z,78.95
2022-12-01T15:26:51.230Z,78.75
2022-12-01T15:29:19.663Z,70.90
2022-12-01T15:31:52.150Z,67.53
2022-12-01T15:34:29.093Z,61.88
2022-12-01T15:36:56.463Z,72.35
2022-12-01T15:39:32.028Z,70.00
2022-12-01T15:41:59.567Z,72.57
2022-12-01T15:44:30.353Z,74.85
2022-12-01T15:46:57.527Z,75.97
2022-12-01T15:49:30.288Z,76.90
2022-12-01T15:52:09.541Z,75.10
2022-12-01T15:54:37.002Z,74.45
2022-12-01T15:57:04.170Z,69.22
2022-12-01T15:59:54.856Z,77.32
2022-12-01T16:02:32.955Z,69.13
2022-12-01T16:05:02.555Z,69.95
2022-12-01T16:08:11.503Z,72.22
2022-12-01T16:10:33.150Z,69.45
2022-12-01T16:13:51.446Z,68.78
2022-12-01T16:16:37.580Z,66.03
2022-12-01T16:19:23.782Z,67.32
2022-12-01T16:21:53.136Z,72.18
2022-12-01T16:24:43.231Z,72.70
2022-12-01T16:27:27.638Z,71.75
2022-12-01T16:32:38.930Z,67.37
2022-12-01T16:35:08.137Z,66.88
2022-12-01T16:37:35.241Z,62.95
2022-12-01T16:40:02.251Z,78.03
2022-12-01T16:42:29.272Z,72.05
2022-12-01T16:44:56.670Z,73.43
2022-12-01T16:47:25.539Z,68.63
2022-12-01T16:49:53.347Z,65.40
2022-12-01T16:55:23.404Z,83.53
2022-12-01T16:57:50.330Z,78.00
2022-12-01T17:00:17.721Z,70.30
2022-12-01T17:02:44.618Z,79.28
2022-12-01T17:05:12.189Z,83.57
2022-12-01T17:07:39.034Z,71.07
2022-12-01T17:10:06.830Z,73.40
2022-12-01T17:12:33.595Z,68.20
2022-12-01T17:15:00.575Z,78.47
2022-12-01T17:17:28.760Z,72.63
2022-12-01T17:19:55.918Z,79.82
2022-12-01T17:22:22.787Z,80.88
2022-12-01T17:24:50.478Z,81.53
2022-12-01T17:27:17.932Z,80.95
2022-12-01T17:29:46.433Z,79.18
2022-12-01T17:32:14.644Z,79.25
2022-12-01T17:34:41.652Z,75.15
2022-12-01T17:37:08.414Z,85.40
2022-12-01T17:39:35.592Z,76.57
2022-12-01T17:42:02.821Z,76.72
2022-12-01T17:44:29.788Z,82.43
2022-12-01T17:46:56.764Z,82.63
2022-12-01T17:49:24.048Z,77.15
2022-12-01T17:51:51.032Z,78.25
2022-12-01T17:54:19.443Z,73.60
2022-12-01T17:56:46.298Z,74.45
2022-12-01T17:59:13.373Z,83.05
2022-12-01T18:01:42.385Z,81.25
2022-12-01T18:04:09.563Z,76.70
2022-12-01T18:06:36.861Z,81.13
2022-12-01T18:09:04.690Z,79.55
2022-12-01T18:11:32.116Z,77.30
2022-12-01T18:14:00.952Z,81.75
2022-12-01T18:16:30.481Z,75.88
2022-12-01T18:18:59.924Z,86.82
2022-12-01T18:21:28.249Z,161.00
2022-12-01T18:24:01.368Z,83.68
2022-12-01T18:26:29.423Z,108.73
2022-12-01T18:29:02.085Z,81.40
2022-12-01T18:31:31.030Z,75.43
2022-12-01T18:34:02.804Z,85.93
2022-12-01T18:36:32.171Z,87.47
2022-12-01T18:39:01.312Z,74.82
2022-12-01T18:41:28.905Z,87.35
2022-12-01T18:43:56.058Z,80.40
2022-12-01T18:46:22.985Z,84.35
2022-12-01T18:48:52.886Z,176.52
2022-12-01T18:51:20.964Z,73.18
2022-12-01T18:53:48.421Z,79.50
2022-12-01T18:56:17.334Z,101.43
2022-12-01T18:58:44.136Z,75.22
2022-12-01T19:01:28.475Z,77.22
2022-12-01T19:03:56.240Z,66.80
2022-12-01T19:06:23.757Z,78.95
2022-12-01T19:08:52.674Z,133.57
2022-12-01T19:11:20.025Z,65.38
2022-12-01T19:13:46.972Z,69.85
2022-12-01T19:16:16.005Z,118.18
2022-12-01T19:18:43.585Z,71.13
2022-12-01T19:21:13.241Z,67.05
2022-12-01T19:23:41.670Z,70.88
2022-12-01T19:26:12.112Z,92.70
2022-12-01T19:28:41.212Z,64.85
2022-12-01T19:31:16.099Z,67.45
2022-12-01T19:33:43.108Z,70.90
2022-12-01T19:36:16.095Z,69.18
2022-12-01T19:38:45.215Z,64.72
2022-12-01T19:41:13.600Z,71.65
2022-12-01T19:43:40.999Z,74.25
2022-12-01T19:46:09.661Z,62.67
2022-12-01T19:48:37.041Z,66.85
2022-12-01T19:51:04.390Z,65.20
2022-12-01T19:53:34.034Z,62.35
2022-12-01T19:56:05.331Z,72.13
2022-12-01T19:58:33.463Z,88.68
2022-12-01T20:01:09.492Z,64.38
2022-12-01T20:03:36.569Z,68.15
2022-12-01T20:06:06.020Z,69.15
2022-12-01T20:08:35.907Z,68.85
2022-12-01T20:11:04.511Z,70.93
2022-12-01T20:13:33.212Z,75.57
2022-12-01T20:16:13.571Z,69.97
2022-12-01T20:18:40.996Z,68.15
2022-12-01T20:21:17.494Z,67.97
2022-12-01T20:23:59.533Z,73.57
2022-12-01T20:26:30.817Z,72.85
2022-12-01T20:29:11.729Z,69.28
2022-12-01T20:31:39.310Z,62.60
2022-12-01T20:34:16.439Z,64.63
2022-12-01T20:36:43.324Z,62.78
2022-12-01T20:39:11.886Z,63.45
2022-12-01T20:41:41.581Z,63.10
2022-12-01T20:44:09.074Z,64.03
2022-12-01T20:46:37.871Z,66.65
2022-12-01T20:49:05.615Z,61.25
2022-12-01T20:51:33.579Z,66.32
2022-12-01T20:54:27.436Z,64.20
2022-12-01T20:56:52.806Z,59.70
2022-12-01T20:59:19.827Z,64.13
2022-12-01T21:01:46.713Z,62.42
2022-12-01T21:04:14.395Z,64.68
2022-12-01T21:06:41.239Z,74.20
2022-12-01T21:09:08.906Z,65.20
2022-12-01T21:12:03.304Z,65.80
2022-12-01T21:14:40.120Z,64.60
2022-12-01T21:17:18.634Z,60.38
2022-12-01T21:19:52.671Z,61.22
2022-12-01T21:22:20.705Z,60.78
2022-12-01T21:24:51.600Z,59.00
2022-12-01T21:27:19.396Z,55.60
2022-12-01T21:29:48.774Z,59.67
2022-12-01T21:32:42.554Z,64.38
2022-12-01T21:35:22.001Z,57.58
2022-12-01T21:37:50.346Z,56.10
2022-12-01T21:40:20.606Z,57.70
2022-12-01T21:42:47.727Z,56.85
2022-12-01T21:45:34.909Z,63.20
2022-12-01T21:48:23.398Z,59.08
2022-12-01T21:50:59.884Z,53.90
2022-12-01T21:53:31.546Z,48.83
2022-12-01T21:55:58.337Z,46.65
2022-12-01T21:58:31.266Z,47.30
2022-12-01T22:00:59.648Z,47.38
2022-12-01T22:03:32.305Z,41.85
2022-12-01T22:06:29.311Z,41.30
2022-12-01T22:08:50.128Z,42.95
2022-12-01T22:11:21.165Z,43.53
2022-12-01T22:13:52.712Z,40.35
2022-12-01T22:16:32.763Z,40.67
2022-12-01T22:19:01.949Z,40.53
2022-12-01T22:21:33.085Z,35.65
2022-12-01T22:24:13.658Z,33.65
2022-12-01T22:26:43.356Z,34.80
2022-12-01T22:29:23.034Z,32.47
2022-12-01T22:31:49.987Z,35.92
2022-12-01T22:34:17.333Z,34.67
2022-12-01T22:36:44.349Z,36.97
2022-12-01T22:39:37.488Z,36.50
2022-12-01T22:42:08.911Z,33.25
2022-12-01T22:44:35.941Z,37.75
2022-12-01T22:47:03.077Z,37.60
2022-12-01T22:49:30.450Z,34.80
2022-12-01T22:52:03.245Z,36.10
2022-12-01T22:54:34.520Z,33.03
2022-12-01T22:57:15.847Z,34.97
2022-12-01T22:59:44.022Z,37.17
2022-12-01T23:02:42.174Z,35.25
2022-12-01T23:05:18.275Z,32.95
2022-12-01T23:07:46.213Z,34.63
2022-12-01T23:10:13.205Z,32.50
2022-12-01T23:12:40.424Z,32.03
2022-12-01T23:15:34.978Z,33.58
2022-12-01T23:20:55.116Z,33.95
2022-12-01T23:23:28.217Z,32.00
2022-12-01T23:25:55.607Z,29.90
2022-12-01T23:28:23.330Z,30.90
2022-12-01T23:30:56.361Z,28.85
2022-12-01T23:33:25.042Z,29.15
2022-12-01T23:35:56.256Z,31.80
2022-12-01T23:38:32.775Z,29.80
2022-12-01T23:41:01.396Z,33.42
2022-12-01T23:43:31.977Z,30.52
2022-12-01T23:46:06.458Z,29.90
2022-12-01T23:48:36.723Z,31.25
2022-12-01T23:51:04.157Z,28.17
2022-12-01T23:53:32.739Z,33.58
2022-12-01T23:56:06.795Z,31.58
